Forum : BIOPHYTIS
Date Sujet Auteur Dernier
28/06/17 18:52 J'ai bien roigolé aujourd'hui biotek17 rblode 1 0
28/06/17 18:50 ATTENTION article vient blog amateur sirene26 rblode 11 2
28/06/17 18:33 cette pseudo-nouvelle sent l'AK t1t1t rblode 5 0
28/06/17 18:31 Cool ... rblode rblode 0 0
28/06/17 18:16 BIOPHYTIS - bonjour pmichau9 pmichau9 8 5
28/06/17 18:12 3,26/3,36 au fix, en étant généreux M9022185 Xrayy 12 0
28/06/17 17:51 Alerte technique Hebdo mm50 H inchi23 Stephh75 5 6
28/06/17 17:37 fix 3.58 adesain4 adesain4 0 1
28/06/17 17:29 faut finir au moins à +10% cadourfr PIPO73 2 0
28/06/17 17:14 encore un quasi -10% sur le + haut cadourfr cadourfr 2 0
28/06/17 17:11 solocal_ _ _ _ _ _ _ _ _^^ xoxpookx cshervin 29 1
28/06/17 17:10 elle est passé ou ZV ?? °=) yelrambo yelrambo 0 0
28/06/17 17:10 Pru 11e j'ai le temps lemaired Bert1414 16 0
28/06/17 17:08 bof bof Bert1414 Bert1414 0 0
28/06/17 17:05 La deuxième vague haussière visio02 cadourfr 4 1
28/06/17 17:05 Encore un volume Goal45 Goal45 0 0
28/06/17 17:03 Elle monte, monte, monte Goal45 Goal45 0 0
28/06/17 16:57 7.48% du capital echangé yves300 bernerd 1 0
28/06/17 16:49 NEOVACS C'EST PARTI albato27 fredy126 1 0
28/06/17 16:31 Un (trop) visible interet à bloquer nepanthe carmen67 1 0
28/06/17 16:29 me rappelle Nicox M8094497 M8094497 3 0
28/06/17 16:25 Les poules retournent chez ARTPRICE Mn92 Mn92 3 0
28/06/17 16:01 dommage pour les acheteurs à 3,85 Bert1414 zv30KJ03 5 0
28/06/17 15:41 DMS!!! M18633 bakbal 1 0
28/06/17 15:34 me rappelle CELECTIS carmen67 carmen67 0 0
28/06/17 15:29 rien à la vente entre 3,66 et 3,71 huggy123 themaske 3 0
28/06/17 15:20 Cours bloqué selons info biphytis june69 yvs38 7 1
28/06/17 15:12 CEUX qui ont vendu à 3,85 vont pouvoir huggy123 huggy123 7 0
28/06/17 15:09 Tout le monde gardent pour attendre la bernerd bernerd 0 0
28/06/17 15:05 c'est bientot l'heure de tout goinfrer huggy123 bernerd 1 0
28/06/17 15:05 3.30-3.40 pour n31410 n31410 0 0
28/06/17 14:57 100K titres échangés en 30 mn cadourfr n31410 1 0
28/06/17 14:54 Objectifs : 4,20 puis 6 ¤ M5022507 dratiser 5 2
28/06/17 14:52 tradperf M4248057 M4248057 0 1
28/06/17 14:45 robots n31410 n31410 1 0
28/06/17 14:41 et hop ordres épouvantail retiré huggy123 huggy123 0 0
28/06/17 14:38 va t'on fermer M9378111 bakbal 1 1
28/06/17 14:32 RH à 4,23 M18633 kbkn1012 1 0
28/06/17 14:32 ça va repartir très vite cadourfr davnico 4 1
28/06/17 14:32 Zut, sortie du triangle ID par le bas biotek17 biotek17 0 0

Les sujets :

Sujet sans réponse.
Sujet principal faisant l'objet d'au moins une réponse.
Sujet comportant une analyse technique commentée.

Les autres icônes :

BoursoStar Expert
BoursoStar 3 étoiles
BoursoStar 2 étoiles
BoursoStar 1 étoiles
BoursoStar